Time;durP1;ratioP1;P1;durP2;ratioP2;P2;SDS_P1;SDS_P2;PMS_P1;PMS_P2;Temp;Humidity;BMP_temperature;BMP_pressure;BME280_temperature;BME280_humidity;BME280_pressure;Samples;Min_cycle;Max_cycle;Signal;HPM_P1;HPM_P2
2022/08/17 00:01:15;;;;;;;31.58;25.65;;;;;;;20.74;75.60;101036.09;5038917;28;20070;-77
2022/08/17 00:03:43;;;;;;;29.10;25.83;;;;;;;20.74;75.80;101035.22;5039655;28;20025;-77
2022/08/17 00:06:26;;;;;;;32.28;27.70;;;;;;;20.73;75.87;101034.38;5034548;28;20034;-77
2022/08/17 00:08:55;;;;;;;32.30;26.42;;;;;;;20.73;76.16;101030.88;5039110;28;20029;-77
2022/08/17 00:11:27;;;;;;;36.13;26.20;;;;;;;20.72;75.91;101035.38;5025714;28;20021;-77
2022/08/17 00:13:57;;;;;;;29.05;25.38;;;;;;;20.70;75.99;101022.19;5022201;28;20025;-77
2022/08/17 00:16:30;;;;;;;37.20;29.48;;;;;;;20.70;76.44;101031.97;5043411;28;20029;-77
2022/08/17 00:18:57;;;;;;;38.70;30.35;;;;;;;20.70;76.29;101034.63;5038955;28;20029;-77
2022/08/17 00:21:23;;;;;;;41.45;33.33;;;;;;;20.67;76.49;101026.91;5033130;28;20381;-77
2022/08/17 00:23:49;;;;;;;38.30;33.80;;;;;;;20.64;76.84;101016.50;5004043;28;20037;-77
2022/08/17 00:26:15;;;;;;;42.35;33.85;;;;;;;20.61;77.25;101022.94;5022428;28;20025;-77
2022/08/17 00:28:41;;;;;;;40.42;33.13;;;;;;;20.60;77.35;101015.03;5039209;28;20363;-77
2022/08/17 00:31:08;;;;;;;45.53;34.28;;;;;;;20.58;77.35;101017.81;5039156;28;20041;-77
2022/08/17 00:33:34;;;;;;;34.28;29.52;;;;;;;20.58;77.70;101015.16;5022959;28;20463;-77
2022/08/17 00:36:00;;;;;;;37.13;31.65;;;;;;;20.57;77.63;101020.59;5036828;28;20041;-77
2022/08/17 00:38:26;;;;;;;41.70;30.38;;;;;;;20.57;77.57;101018.78;5038463;28;20244;-77
2022/08/17 00:40:56;;;;;;;36.63;30.20;;;;;;;20.58;77.54;101016.97;5046311;28;20029;-77
2022/08/17 00:43:32;;;;;;;33.75;28.70;;;;;;;20.59;77.39;101014.19;5038694;28;20060;-77
2022/08/17 00:46:00;;;;;;;36.72;27.60;;;;;;;20.61;77.35;101008.75;5046542;28;20029;-77
2022/08/17 00:48:27;;;;;;;34.83;28.20;;;;;;;20.62;77.16;101018.44;5038680;28;20096;-77
2022/08/17 00:51:00;;;;;;;35.22;28.58;;;;;;;20.63;77.19;101009.47;5033396;28;20026;-77
2022/08/17 00:53:28;;;;;;;33.67;27.80;;;;;;;20.64;76.99;101004.03;5035887;28;20029;-77
2022/08/17 00:55:55;;;;;;;35.05;29.27;;;;;;;20.65;76.91;100999.59;5038803;28;20348;-77
2022/08/17 00:58:21;;;;;;;32.17;27.92;;;;;;;20.66;77.37;100998.59;5038108;28;20302;-77
2022/08/17 01:00:48;;;;;;;33.17;28.10;;;;;;;20.66;77.35;100991.44;5035969;28;20072;-77
2022/08/17 01:03:20;;;;;;;38.70;30.98;;;;;;;20.67;77.58;100995.81;5010144;28;20033;-77
2022/08/17 01:05:51;;;;;;;40.13;30.40;;;;;;;20.68;78.04;100996.66;5038669;28;20354;-77
2022/08/17 01:08:20;;;;;;;39.90;32.38;;;;;;;20.69;78.35;100995.69;5020420;28;20093;-77
2022/08/17 01:10:48;;;;;;;44.47;36.25;;;;;;;20.67;78.73;100997.63;5045917;28;20040;-77
2022/08/17 01:13:15;;;;;;;43.95;37.67;;;;;;;20.66;79.38;101003.91;5058061;28;20029;-77
2022/08/17 01:15:45;;;;;;;44.50;34.70;;;;;;;20.63;79.77;101007.69;5052432;28;20103;-77
2022/08/17 01:18:12;;;;;;;45.50;35.55;;;;;;;20.63;79.96;101010.34;5037443;28;20030;-77
2022/08/17 01:20:43;;;;;;;46.65;35.83;;;;;;;20.62;79.91;101005.97;5043920;28;20071;-77
2022/08/17 01:23:08;;;;;;;41.95;34.40;;;;;;;20.62;80.12;101013.13;5058239;28;20036;-77
2022/08/17 01:25:34;;;;;;;40.08;34.35;;;;;;;20.61;80.37;101022.94;5057482;28;20044;-77
2022/08/17 01:27:59;;;;;;;39.55;33.97;;;;;;;20.63;79.96;101030.75;5049326;28;20037;-77
2022/08/17 01:30:24;;;;;;;33.28;28.90;;;;;;;20.62;78.99;101063.69;5038080;28;20051;-77
2022/08/17 01:32:50;;;;;;;40.03;33.03;;;;;;;20.63;78.06;101091.97;5038643;28;20057;-77
2022/08/17 01:35:15;;;;;;;35.33;30.02;;;;;;;20.61;76.22;101085.91;5020238;28;20071;-77
2022/08/17 01:37:41;;;;;;;38.88;31.27;;;;;;;20.63;76.39;101082.19;5021848;28;20064;-77
2022/08/17 01:40:09;;;;;;;32.83;28.60;;;;;;;20.62;75.64;101075.16;5038156;28;20036;-76
2022/08/17 01:42:54;;;;;;;39.75;30.83;;;;;;;20.61;75.87;101104.53;5057181;28;20037;-76
2022/08/17 01:45:23;;;;;;;39.50;29.02;;;;;;;20.61;76.22;101091.25;5038438;28;20032;-77
2022/08/17 01:47:50;;;;;;;27.13;23.73;;;;;;;20.59;75.98;101094.00;5026472;28;20277;-76
2022/08/17 01:50:23;;;;;;;25.50;20.95;;;;;;;20.58;75.51;101091.47;5020787;28;20029;-76
2022/08/17 01:52:52;;;;;;;23.35;20.08;;;;;;;20.57;75.19;101095.94;5058260;28;20045;-76
2022/08/17 01:55:25;;;;;;;23.63;20.63;;;;;;;20.58;75.03;101104.78;5058385;28;20043;-77
2022/08/17 01:57:50;;;;;;;23.33;19.75;;;;;;;20.60;74.97;101108.16;5038470;28;20029;-77
2022/08/17 02:00:17;;;;;;;22.50;20.08;;;;;;;20.61;74.92;101109.88;5037809;28;20028;-77
2022/08/17 02:02:44;;;;;;;20.90;17.65;;;;;;;20.63;75.14;101110.59;5056863;28;20082;-77
2022/08/17 02:05:11;;;;;;;20.85;18.70;;;;;;;20.63;75.22;101111.47;5040415;28;20060;-77
2022/08/17 02:07:36;;;;;;;21.08;18.27;;;;;;;20.63;75.17;101103.47;5055734;28;20091;-77
2022/08/17 02:10:04;;;;;;;20.92;18.15;;;;;;;20.63;75.48;101097.28;5058335;28;20040;-77
2022/08/17 02:12:30;;;;;;;18.88;16.95;;;;;;;20.62;75.77;101100.94;5057568;28;20040;-77
2022/08/17 02:14:55;;;;;;;20.30;18.30;;;;;;;20.61;75.79;101094.78;5040464;28;20096;-77
2022/08/17 02:17:21;;;;;;;20.55;18.48;;;;;;;20.60;76.20;101078.88;5025330;28;20291;-77
2022/08/17 02:19:46;;;;;;;24.52;20.23;;;;;;;20.58;76.56;101070.19;5036751;28;20037;-77
2022/08/17 02:22:12;;;;;;;22.55;20.38;;;;;;;20.56;76.70;101069.47;5038342;28;20364;-77
2022/08/17 02:24:38;;;;;;;21.33;18.88;;;;;;;20.51;76.98;101075.13;5038027;28;20082;-77
2022/08/17 02:27:04;;;;;;;19.33;17.42;;;;;;;20.48;77.15;101084.22;5047490;28;20028;-77
2022/08/17 02:29:30;;;;;;;23.58;19.85;;;;;;;20.46;76.90;101085.28;5044457;28;20051;-77
2022/08/17 02:31:57;;;;;;;20.50;18.02;;;;;;;20.44;77.25;101082.75;5041110;28;20073;-77
2022/08/17 02:34:23;;;;;;;24.30;20.70;;;;;;;20.42;77.29;101074.03;5038879;28;20083;-75
2022/08/17 02:36:48;;;;;;;29.13;19.48;;;;;;;20.39;77.58;101071.66;5043785;28;20032;-75
2022/08/17 02:39:14;;;;;;;18.80;16.15;;;;;;;20.38;77.86;101069.09;5023354;28;20044;-75
2022/08/17 02:41:40;;;;;;;26.05;17.52;;;;;;;20.33;77.82;101057.00;5056880;28;20045;-75
2022/08/17 02:44:05;;;;;;;27.40;17.20;;;;;;;20.30;78.34;101059.03;5057926;28;20043;-75
2022/08/17 02:46:31;;;;;;;23.35;17.73;;;;;;;20.25;78.66;101063.91;5033105;28;20151;-75
2022/08/17 02:48:57;;;;;;;20.42;15.43;;;;;;;20.23;78.74;101068.47;5040872;28;20063;-75
2022/08/17 02:51:23;;;;;;;21.67;16.65;;;;;;;20.19;78.90;101067.00;5056723;28;20028;-75
2022/08/17 02:53:48;;;;;;;20.10;15.15;;;;;;;20.17;79.11;101071.59;5038788;28;20329;-74
2022/08/17 02:56:14;;;;;;;23.30;14.95;;;;;;;20.16;79.10;101078.75;5039825;28;20359;-75
2022/08/17 02:58:39;;;;;;;17.45;13.45;;;;;;;20.15;79.19;101082.34;5004436;28;20101;-74
2022/08/17 03:01:07;;;;;;;16.23;14.45;;;;;;;20.12;79.62;101088.78;5038278;28;20044;-74
2022/08/17 03:03:33;;;;;;;17.65;12.70;;;;;;;20.13;79.60;101098.41;5020336;28;20113;-75
2022/08/17 03:05:58;;;;;;;15.05;12.23;;;;;;;20.15;79.37;101098.31;5038800;28;20317;-74
2022/08/17 03:08:24;;;;;;;13.63;11.32;;;;;;;20.16;79.11;101093.88;5054982;28;20103;-74
2022/08/17 03:10:49;;;;;;;14.57;11.00;;;;;;;20.18;79.23;101086.59;5040455;28;20446;-74
2022/08/17 03:13:15;;;;;;;14.00;11.23;;;;;;;20.19;79.07;101069.66;5025043;28;20033;-74
2022/08/17 03:15:44;;;;;;;12.18;9.68;;;;;;;20.19;79.37;101067.84;5037235;28;20037;-74
2022/08/17 03:18:11;;;;;;;11.85;10.65;;;;;;;20.16;79.60;101067.28;5032936;28;20088;-74
2022/08/17 03:20:37;;;;;;;11.05;9.98;;;;;;;20.11;80.26;101068.44;5057592;28;20199;-74
2022/08/17 03:23:03;;;;;;;10.90;9.85;;;;;;;20.11;80.35;101072.94;5045603;28;20052;-74
2022/08/17 03:25:31;;;;;;;10.13;8.60;;;;;;;20.10;80.44;101073.88;5037245;28;20064;-74
2022/08/17 03:27:56;;;;;;;11.35;10.27;;;;;;;20.05;80.98;101076.06;5048568;28;20017;-74
2022/08/17 03:30:23;;;;;;;9.40;8.60;;;;;;;20.04;81.01;101077.03;5057314;28;20051;-74
2022/08/17 03:32:50;;;;;;;11.02;9.15;;;;;;;20.04;81.03;101090.31;5029797;28;20053;-74
2022/08/17 03:35:19;;;;;;;9.30;8.25;;;;;;;20.05;81.06;101090.22;5056864;28;20033;-74
2022/08/17 03:37:45;;;;;;;9.15;8.25;;;;;;;20.05;80.95;101084.88;5051484;28;20316;-74
2022/08/17 03:40:12;;;;;;;11.27;10.23;;;;;;;20.04;81.15;101083.19;5055947;28;20037;-74
2022/08/17 03:42:38;;;;;;;10.05;9.05;;;;;;;20.05;81.02;101079.56;5055486;28;20491;-74
2022/08/17 03:45:10;;;;;;;11.02;8.70;;;;;;;20.06;80.58;101078.59;5039562;28;20029;-75
2022/08/17 03:58:49;;;;;;;15.70;9.73;;;;;;;20.11;80.30;101051.66;5044105;28;20040;-75
2022/08/17 04:01:15;;;;;;;14.65;11.02;;;;;;;20.08;81.43;101049.22;5036974;28;20446;-74
2022/08/17 04:03:40;;;;;;;15.15;10.15;;;;;;;20.01;82.05;101042.69;5040484;28;20052;-75
2022/08/17 04:06:06;;;;;;;11.02;9.60;;;;;;;19.99;82.25;101036.66;5037518;28;20057;-75
2022/08/17 04:08:32;;;;;;;12.65;8.40;;;;;;;19.96;82.09;101027.13;5040845;28;20351;-75
2022/08/17 04:10:59;;;;;;;11.15;9.27;;;;;;;19.96;81.93;101018.31;5019539;28;20033;-75
2022/08/17 04:13:25;;;;;;;9.02;8.13;;;;;;;19.96;81.86;101016.50;5037234;28;20036;-75
2022/08/17 04:15:51;;;;;;;12.07;8.40;;;;;;;19.97;81.78;101020.81;5037153;28;20045;-75
2022/08/17 04:18:18;;;;;;;12.60;9.50;;;;;;;19.95;82.03;101022.75;5040664;28;20449;-75
2022/08/17 04:20:43;;;;;;;14.30;9.70;;;;;;;19.95;82.13;101022.75;5045035;28;20108;-75
2022/08/17 04:23:16;;;;;;;10.88;9.70;;;;;;;19.96;82.17;101023.63;5017405;28;20095;-75
2022/08/17 04:25:46;;;;;;;15.57;11.70;;;;;;;19.95;82.21;101025.41;5037015;28;20045;-75
2022/08/17 04:28:12;;;;;;;12.20;10.15;;;;;;;19.95;82.42;101022.75;5041438;28;20320;-75
2022/08/17 04:30:38;;;;;;;12.85;11.55;;;;;;;19.92;82.71;101025.69;5057036;28;20035;-75
2022/08/17 04:33:08;;;;;;;15.10;13.45;;;;;;;19.89;83.48;101021.41;5054031;28;20087;-75
2022/08/17 04:35:44;;;;;;;15.00;11.30;;;;;;;19.90;83.35;101019.59;5036574;28;20033;-75
2022/08/17 04:38:12;;;;;;;11.32;10.15;;;;;;;19.90;83.02;101022.25;5039573;28;20244;-75
2022/08/17 04:43:24;;;;;;;16.85;11.73;;;;;;;19.90;83.35;101019.59;5055626;28;20121;-74
2022/08/17 04:45:59;;;;;;;14.55;10.60;;;;;;;19.89;83.03;101021.41;5057212;28;20063;-74
2022/08/17 04:48:30;;;;;;;13.07;11.13;;;;;;;19.93;82.85;101016.72;5053472;28;20301;-74
2022/08/17 04:50:57;;;;;;;16.35;12.55;;;;;;;19.94;82.93;101031.72;5037492;28;20064;-74
2022/08/17 04:53:22;;;;;;;13.40;11.75;;;;;;;19.94;82.90;101024.56;5039182;28;20309;-74
2022/08/17 04:55:50;;;;;;;17.73;13.48;;;;;;;19.95;82.77;101025.41;5019432;28;20033;-74
2022/08/17 04:58:16;;;;;;;19.00;13.88;;;;;;;19.95;83.11;101022.75;5040857;28;20021;-74
2022/08/17 05:00:41;;;;;;;15.90;13.27;;;;;;;19.94;83.57;101019.25;5052627;28;20370;-74
2022/08/17 05:03:07;;;;;;;15.27;13.77;;;;;;;19.96;83.40;101018.31;5037944;28;20321;-75
2022/08/17 05:05:41;;;;;;;19.02;14.25;;;;;;;19.96;83.61;101020.97;5050835;28;20045;-75
2022/08/17 05:08:08;;;;;;;19.20;15.43;;;;;;;19.96;83.98;101016.50;5020822;28;20029;-74
2022/08/17 05:10:36;;;;;;;22.27;14.77;;;;;;;19.96;83.93;101019.16;5049651;28;20044;-75
2022/08/17 05:13:07;;;;;;;19.73;14.43;;;;;;;19.96;84.04;101019.16;5039637;28;20044;-75
2022/08/17 05:15:35;;;;;;;17.42;13.32;;;;;;;19.98;83.59;101021.69;5034040;28;20044;-75
2022/08/17 05:18:01;;;;;;;21.58;14.50;;;;;;;19.98;83.68;101024.34;5034919;28;20099;-75
2022/08/17 05:20:28;;;;;;;28.48;19.73;;;;;;;19.93;85.08;101024.69;5039438;28;20049;-75
2022/08/17 05:22:56;;;;;;;21.05;17.45;;;;;;;19.91;85.39;101022.16;5030248;28;20037;-75
2022/08/17 05:25:26;;;;;;;24.03;19.43;;;;;;;19.89;85.69;101023.25;5049193;28;20037;-74
2022/08/17 05:27:53;;;;;;;24.40;18.80;;;;;;;19.87;85.94;101017.19;5038766;28;20287;-75
2022/08/17 05:30:19;;;;;;;25.90;20.73;;;;;;;19.75;87.39;101018.97;5034997;28;20069;-75
2022/08/17 05:32:59;;;;;;;27.75;21.35;;;;;;;19.69;87.60;101019.44;5043311;28;20068;-75
2022/08/17 05:35:28;;;;;;;27.27;20.73;;;;;;;19.66;88.09;101012.50;5034733;28;20068;-75
2022/08/17 05:37:54;;;;;;;25.83;21.13;;;;;;;19.64;87.98;101018.91;5027473;28;20051;-75
2022/08/17 05:40:20;;;;;;;22.85;19.65;;;;;;;19.63;87.84;101018.09;5054396;28;20272;-75
2022/08/17 05:42:46;;;;;;;22.75;19.50;;;;;;;19.62;87.89;101018.19;5053490;28;20336;-75
2022/08/17 05:45:14;;;;;;;23.38;19.98;;;;;;;19.64;87.82;101037.53;5046262;28;20046;-75
2022/08/17 05:47:41;;;;;;;25.65;18.42;;;;;;;19.66;87.53;101051.53;5044429;28;20044;-75
2022/08/17 05:50:08;;;;;;;17.10;15.40;;;;;;;19.70;87.44;101060.94;5053955;28;20045;-75
2022/08/17 05:52:46;;;;;;;17.35;14.82;;;;;;;19.73;86.92;101072.22;5051501;28;20036;-75
2022/08/17 05:55:14;;;;;;;16.10;14.50;;;;;;;19.78;86.31;101079.03;5035641;28;20115;-75
2022/08/17 05:58:01;;;;;;;15.85;13.90;;;;;;;19.81;85.75;101081.44;5039413;28;20238;-75
2022/08/17 06:00:35;;;;;;;16.95;14.13;;;;;;;19.84;85.24;101076.72;5033905;28;20533;-75
2022/08/17 06:03:21;;;;;;;15.07;13.57;;;;;;;19.88;84.98;101072.03;5021125;28;20036;-76
2022/08/17 06:06:07;;;;;;;17.48;15.25;;;;;;;19.90;84.80;101076.28;5034757;28;20109;-75
2022/08/17 06:08:48;;;;;;;17.88;15.63;;;;;;;19.91;84.73;101062.00;5047459;28;20097;-76
2022/08/17 06:11:37;;;;;;;21.08;14.98;;;;;;;19.93;84.43;101053.94;5058514;28;20041;-76
2022/08/17 06:14:30;;;;;;;18.75;15.45;;;;;;;19.94;84.81;101056.47;5057676;28;20032;-76
2022/08/17 06:17:10;;;;;;;19.25;15.75;;;;;;;19.94;84.89;101050.31;5059082;28;20089;-76
2022/08/17 06:19:46;;;;;;;20.67;16.23;;;;;;;19.95;85.16;101065.28;5018471;28;20030;-75
2022/08/17 06:22:15;;;;;;;19.30;16.15;;;;;;;19.94;85.67;101056.47;5019528;28;20041;-76
2022/08/17 06:24:52;;;;;;;19.80;15.43;;;;;;;19.97;85.40;101066.00;5038906;28;20025;-75
2022/08/17 06:27:32;;;;;;;22.40;17.25;;;;;;;19.97;85.46;101070.47;5044457;28;20413;-75
2022/08/17 06:30:07;;;;;;;21.45;16.45;;;;;;;19.97;85.27;101067.81;5035518;28;20033;-75
2022/08/17 06:32:34;;;;;;;20.35;15.05;;;;;;;19.98;85.29;101072.19;5027828;28;20303;-75
2022/08/17 06:35:01;;;;;;;21.55;16.85;;;;;;;19.99;85.27;101069.41;5051371;28;20108;-75
2022/08/17 06:38:09;;;;;;;19.90;16.60;;;;;;;20.01;85.04;101074.59;5015006;28;20057;-75
2022/08/17 06:40:34;;;;;;;17.55;15.30;;;;;;;20.02;85.11;101078.97;5012431;28;20237;-75
2022/08/17 06:43:24;;;;;;;17.27;15.52;;;;;;;20.02;85.15;101087.78;5033335;28;20036;-75
2022/08/17 06:46:01;;;;;;;18.27;15.45;;;;;;;20.04;85.24;101099.13;5022919;28;20041;-76
2022/08/17 06:48:39;;;;;;;20.73;16.27;;;;;;;20.04;85.38;101098.28;5050755;28;20259;-75
2022/08/17 06:51:22;;;;;;;20.35;16.65;;;;;;;20.03;85.41;101097.47;5040541;28;20071;-75
2022/08/17 06:54:05;;;;;;;20.25;16.17;;;;;;;20.04;85.67;101098.28;5036771;28;20037;-75
2022/08/17 06:56:39;;;;;;;22.20;15.55;;;;;;;20.05;85.46;101105.31;5034422;28;20029;-75
2022/08/17 06:59:06;;;;;;;17.92;16.02;;;;;;;20.06;85.36;101105.16;5018380;28;20068;-75
2022/08/17 07:01:36;;;;;;;19.17;15.20;;;;;;;20.07;85.07;101106.03;5035255;28;20040;-75
2022/08/17 07:04:22;;;;;;;18.83;16.02;;;;;;;20.07;85.22;101112.19;5036298;28;20044;-75
2022/08/17 07:08:00;;;;;;;16.30;14.68;;;;;;;20.08;85.19;101116.56;5035579;28;20028;-75
2022/08/17 07:09:47;;;;;;;21.02;15.40;;;;;;;20.10;85.11;101111.09;5034107;28;20033;-76
2022/08/17 07:12:22;;;;;;;18.83;15.82;;;;;;;20.09;85.29;101120.91;5035645;28;20454;-76
2022/08/17 07:14:53;;;;;;;18.55;15.30;;;;;;;20.10;85.23;101127.94;5035746;28;20035;-76
2022/08/17 07:17:21;;;;;;;18.23;14.55;;;;;;;20.11;84.83;101134.91;5030823;28;20378;-76
2022/08/17 07:19:49;;;;;;;16.45;14.43;;;;;;;20.11;84.78;101137.56;5018813;28;20025;-76
2022/08/17 07:22:25;;;;;;;19.02;14.88;;;;;;;20.12;84.58;101141.94;5035391;28;20025;-76
2022/08/17 07:24:58;;;;;;;17.40;14.25;;;;;;;20.14;84.41;101147.16;5036821;28;20343;-76
2022/08/17 07:27:51;;;;;;;14.98;13.48;;;;;;;20.14;84.27;101144.50;5035545;28;20033;-76
2022/08/17 07:30:23;;;;;;;14.38;12.98;;;;;;;20.15;84.26;101146.16;5017822;28;20026;-76
2022/08/17 07:33:07;;;;;;;14.35;12.95;;;;;;;20.15;84.09;101151.50;5036169;28;20057;-76
2022/08/17 07:35:38;;;;;;;16.63;14.02;;;;;;;20.16;84.42;101139.91;5035760;28;20036;-76
2022/08/17 07:38:10;;;;;;;16.63;13.60;;;;;;;20.15;84.42;101138.19;5018081;28;20035;-76
2022/08/17 07:40:45;;;;;;;17.38;14.50;;;;;;;20.17;84.63;101132.75;5051317;28;20032;-76
2022/08/17 07:43:10;;;;;;;17.52;14.40;;;;;;;20.16;84.62;101131.94;5021553;28;20482;-76
2022/08/17 07:48:36;;;;;;;17.98;15.90;;;;;;;20.16;85.90;101139.06;5007801;28;20032;-76
2022/08/17 07:51:14;;;;;;;16.95;15.38;;;;;;;20.14;86.05;101137.34;4981445;28;20030;-76
2022/08/17 07:53:40;;;;;;;16.85;15.05;;;;;;;20.13;85.98;101143.63;5033801;28;20048;-76
2022/08/17 07:56:05;;;;;;;19.20;17.23;;;;;;;20.12;86.09;101133.13;5004770;28;20033;-75
2022/08/17 07:58:31;;;;;;;19.45;17.10;;;;;;;20.09;86.87;101136.84;5007290;28;20283;-75
2022/08/17 08:01:07;;;;;;;19.63;16.58;;;;;;;20.09;87.17;101136.84;5012283;28;20045;-76
2022/08/17 08:03:41;;;;;;;19.42;16.05;;;;;;;20.08;87.29;101131.66;5037397;28;20333;-75
2022/08/17 08:06:19;;;;;;;23.27;18.25;;;;;;;20.07;87.79;101135.28;5047466;28;20214;-75
2022/08/17 08:08:51;;;;;;;17.60;15.95;;;;;;;20.08;88.04;101140.50;5035024;28;20040;-75
2022/08/17 08:11:31;;;;;;;18.38;15.65;;;;;;;20.08;88.23;101142.28;5034665;28;20084;-75
2022/08/17 08:14:19;;;;;;;18.48;16.58;;;;;;;20.07;88.51;101152.06;5050134;28;20335;-75
2022/08/17 08:17:05;;;;;;;19.48;17.40;;;;;;;20.04;89.10;101156.78;5034017;28;20056;-75
2022/08/17 08:19:31;;;;;;;19.17;16.85;;;;;;;20.01;89.49;101151.69;5021202;28;20368;-75
2022/08/17 08:22:10;;;;;;;17.50;15.73;;;;;;;20.00;89.07;101161.47;5034438;28;20206;-75
2022/08/17 08:24:47;;;;;;;15.35;13.85;;;;;;;20.02;88.43;101154.22;5034755;28;20143;-75
2022/08/17 08:27:16;;;;;;;21.13;16.40;;;;;;;20.00;88.88;101156.16;5029483;28;20045;-75
2022/08/17 08:29:47;;;;;;;19.63;15.55;;;;;;;19.97;89.46;101153.72;5034454;28;20033;-75
2022/08/17 08:32:36;;;;;;;19.15;16.42;;;;;;;19.96;89.55;101160.03;5033373;28;20053;-75
2022/08/17 08:35:06;;;;;;;14.07;12.70;;;;;;;19.93;89.07;101163.75;5012721;28;20306;-75
2022/08/17 08:38:09;;;;;;;13.60;12.32;;;;;;;19.91;88.52;101163.00;5032465;28;20025;-75
2022/08/17 08:40:46;;;;;;;13.25;12.15;;;;;;;19.90;88.30;101168.44;5028783;28;20056;-75
2022/08/17 08:43:21;;;;;;;14.05;12.57;;;;;;;19.88;88.69;101168.56;5027507;28;20040;-75
2022/08/17 08:46:01;;;;;;;15.20;12.95;;;;;;;19.88;88.82;101176.56;5016010;28;20037;-75
2022/08/17 08:49:00;;;;;;;17.05;14.00;;;;;;;19.89;88.92;101188.03;5031553;28;20049;-75
2022/08/17 08:51:50;;;;;;;13.10;11.85;;;;;;;19.93;88.54;101198.28;5036150;28;20056;-75
2022/08/17 08:54:25;;;;;;;10.88;9.90;;;;;;;19.96;88.23;101197.22;5016345;28;20100;-75
2022/08/17 08:56:56;;;;;;;11.40;10.40;;;;;;;20.01;87.99;101204.84;5034277;28;20367;-75
2022/08/17 08:59:47;;;;;;;10.88;9.95;;;;;;;20.05;87.29;101207.19;5034213;28;20060;-75
2022/08/17 09:02:33;;;;;;;11.40;10.40;;;;;;;20.08;86.98;101206.97;5031284;28;20332;-75
2022/08/17 09:05:14;;;;;;;12.38;11.18;;;;;;;20.10;86.69;101207.69;5034637;28;20037;-75
2022/08/17 09:07:57;;;;;;;13.75;11.95;;;;;;;20.14;86.53;101195.84;5037901;28;20052;-75
2022/08/17 09:10:34;;;;;;;13.27;12.07;;;;;;;20.16;86.73;101194.91;5036907;28;20041;-75
2022/08/17 09:13:20;;;;;;;13.27;11.98;;;;;;;20.19;87.00;101197.31;5020041;28;20040;-75
2022/08/17 09:15:57;;;;;;;12.13;11.02;;;;;;;20.21;87.12;101198.03;5038905;28;20235;-75
2022/08/17 09:18:50;;;;;;;11.77;10.57;;;;;;;20.21;86.70;101206.00;5031209;28;20052;-75
2022/08/17 09:21:20;;;;;;;12.13;10.73;;;;;;;20.23;86.63;101212.94;5026210;28;20099;-75
2022/08/17 09:23:58;;;;;;;11.88;10.75;;;;;;;20.24;86.46;101221.75;5029053;28;20853;-75
2022/08/17 09:26:36;;;;;;;12.50;11.25;;;;;;;20.25;86.42;101223.44;5016319;28;20037;-75
2022/08/17 09:29:07;;;;;;;12.95;11.32;;;;;;;20.25;86.23;101228.78;5034427;28;20127;-75
2022/08/17 09:32:02;;;;;;;11.82;10.75;;;;;;;20.25;86.44;101226.94;5020816;28;20025;-75
2022/08/17 09:34:38;;;;;;;12.27;11.27;;;;;;;20.27;86.33;101229.50;5016748;28;20038;-75
2022/08/17 09:37:18;;;;;;;11.13;10.20;;;;;;;20.27;86.75;101230.34;5033820;28;20047;-75
2022/08/17 09:40:22;;;;;;;14.07;11.15;;;;;;;20.27;86.51;101235.66;5045608;28;20075;-75
2022/08/17 09:43:23;;;;;;;10.80;9.82;;;;;;;20.27;86.50;101229.50;5037384;28;20041;-75
2022/08/17 09:45:56;;;;;;;9.93;9.10;;;;;;;20.27;86.22;101225.00;5036720;28;20026;-75
2022/08/17 09:48:32;;;;;;;26.40;11.30;;;;;;;20.28;86.29;101221.41;5025508;28;20036;-75
2022/08/17 09:51:12;;;;;;;105.07;20.27;;;;;;;20.27;86.48;101217.03;5038262;28;20032;-75
2022/08/17 09:53:39;;;;;;;63.42;16.13;;;;;;;20.27;86.74;101211.72;5037796;28;20083;-75
2022/08/17 09:56:22;;;;;;;60.78;16.00;;;;;;;20.30;86.83;101218.59;5037004;28;20336;-75
2022/08/17 09:59:07;;;;;;;37.70;14.60;;;;;;;20.29;87.13;101220.44;5031065;28;20121;-75
2022/08/17 10:01:50;;;;;;;16.85;12.13;;;;;;;20.30;87.17;101216.81;5038583;28;20095;-75
2022/08/17 10:04:37;;;;;;;14.10;12.15;;;;;;;20.31;86.80;101234.44;5047567;28;20086;-75
2022/08/17 10:07:05;;;;;;;13.10;11.80;;;;;;;20.31;86.77;101230.94;5041822;28;20060;-75
2022/08/17 10:09:47;;;;;;;;;;;;;;;20.29;86.77;101236.38;5047971;28;20255;-75
2022/08/17 10:12:19;;;;;;;11.02;10.10;;;;;;;20.31;86.47;101237.13;5027777;28;19920;-75
2022/08/17 10:14:49;;;;;;;10.90;9.90;;;;;;;20.32;86.45;101240.66;5051967;28;20217;-75
2022/08/17 10:17:17;;;;;;;11.55;10.38;;;;;;;20.32;86.64;101238.81;5045027;28;20253;-75
2022/08/17 10:20:10;;;;;;;13.15;11.95;;;;;;;20.32;86.89;101238.81;5053214;28;20225;-75
2022/08/17 10:28:44;;;;;;;13.35;12.10;;;;;;;20.30;86.85;101237.22;5037009;28;20317;-75
2022/08/17 10:31:16;;;;;;;13.80;12.52;;;;;;;20.29;86.79;101231.06;5037813;28;20091;-75
2022/08/17 10:33:59;;;;;;;15.25;13.80;;;;;;;20.28;86.77;101234.69;5041160;28;20041;-75
2022/08/17 10:36:36;;;;;;;14.68;13.40;;;;;;;20.30;86.76;101237.22;5037672;28;20252;-75
2022/08/17 10:39:21;;;;;;;14.35;12.98;;;;;;;20.29;86.37;101231.06;5025083;28;20232;-75
2022/08/17 10:41:51;;;;;;;14.35;12.98;;;;;;;20.31;86.15;101236.28;5038235;28;20361;-75
2022/08/17 10:44:35;;;;;;;65.10;18.38;;;;;;;20.31;86.43;101238.94;5037643;28;20032;-75
2022/08/17 10:47:15;;;;;;;27.45;14.45;;;;;;;20.32;86.34;101237.97;5038771;28;20104;-75
2022/08/17 10:49:46;;;;;;;58.35;17.63;;;;;;;20.32;86.40;101241.47;5025608;28;20036;-75
2022/08/17 10:52:21;;;;;;;27.20;14.18;;;;;;;20.33;86.35;101235.19;5054585;28;20025;-74
2022/08/17 10:54:50;;;;;;;71.95;16.50;;;;;;;20.33;86.17;101232.53;5035452;28;20045;-75
2022/08/17 10:57:30;;;;;;;35.20;13.27;;;;;;;20.35;85.84;101231.56;5037085;28;20248;-75
2022/08/17 10:59:59;;;;;;;17.33;11.13;;;;;;;20.37;85.95;101233.13;5052332;28;20339;-75
2022/08/17 11:02:48;;;;;;;99.78;18.17;;;;;;;20.37;85.88;101233.13;5039831;28;20101;-75
2022/08/17 11:05:49;;;;;;;44.75;12.68;;;;;;;20.38;85.62;101234.84;5021709;28;20074;-75
2022/08/17 11:08:32;;;;;;;16.20;11.95;;;;;;;20.34;85.57;101228.06;5036145;28;20044;-75
2022/08/17 11:11:09;;;;;;;13.93;11.40;;;;;;;20.27;85.73;101232.16;5051457;28;20037;-75
2022/08/17 11:13:44;;;;;;;15.93;12.32;;;;;;;20.26;86.12;101230.44;5050057;28;20104;-75
2022/08/17 11:16:44;;;;;;;14.18;12.55;;;;;;;20.19;87.47;101226.56;5039735;28;20216;-75
2022/08/17 11:19:31;;;;;;;14.23;12.73;;;;;;;20.18;87.87;101233.69;5040826;28;20049;-75
2022/08/17 11:22:28;;;;;;;15.73;14.10;;;;;;;20.16;87.59;101235.63;5017268;28;20069;-75
2022/08/17 11:24:55;;;;;;;17.83;15.23;;;;;;;20.14;88.66;101238.38;5034322;28;20340;-75
2022/08/17 11:27:28;;;;;;;18.73;15.07;;;;;;;20.11;89.13;101248.41;5015497;28;20356;-75
2022/08/17 11:29:58;;;;;;;15.57;14.00;;;;;;;20.11;89.13;101241.28;5032384;28;20244;-75
2022/08/17 11:32:33;;;;;;;18.88;15.85;;;;;;;20.07;89.77;101250.44;5018026;28;20240;-75
2022/08/17 11:35:33;;;;;;;16.95;15.25;;;;;;;20.07;90.27;101254.91;5041507;28;20392;-75
2022/08/17 11:38:19;;;;;;;19.13;17.08;;;;;;;20.03;90.59;101262.28;5043068;28;20037;-75
2022/08/17 11:41:05;;;;;;;19.88;17.13;;;;;;;20.00;91.00;101254.50;5040615;28;20013;-75
2022/08/17 11:43:56;;;;;;;20.08;17.10;;;;;;;20.00;91.68;101245.69;5039623;28;20036;-75
2022/08/17 11:52:41;;;;;;;21.25;18.60;;;;;;;20.02;91.46;101246.44;5036766;28;20379;-75
2022/08/17 11:55:11;;;;;;;20.90;18.75;;;;;;;20.02;91.81;101244.63;5038060;28;20369;-75
2022/08/17 11:57:39;;;;;;;20.90;18.63;;;;;;;20.04;91.58;101240.03;5017603;28;20048;-75
2022/08/17 12:00:10;;;;;;;;;;;;;;;20.06;91.64;101239.91;5053640;28;20107;-75
2022/08/17 12:02:43;;;;;;;21.50;17.75;;;;;;;20.02;91.33;101233.97;5043742;28;19936;-75
2022/08/17 12:05:24;;;;;;;20.25;18.15;;;;;;;20.04;91.27;101242.69;5019057;28;20025;-75
2022/08/17 12:08:04;;;;;;;20.20;18.20;;;;;;;20.07;91.40;101246.94;5028821;28;20048;-75